Gray Mountain, Arizona
Current Conditions -  °F | °C
As of 8:54 PM on Wednesday 28 Jan 2015 (Local Time) from KGCN Reporting Station
Clear Clear  
Wind Chill: 36°   Ceiling: Unl
Heat Index: 36°   Visibility: 10mi
Dew Point: 31°   Wind: 0mph
Humidity: 82%   Direction: NA
Pressure: 30.28"   Gusts: NA
Location:  35.75°N, 111.48°W
Report Text: KGCN 290354Z 00000KT 10SM CLR 02/M01 A3028 RMK AO2 SLP249 T00221006
Loading
Personal Weather Stations






























Interactive Weather Map New forecast layout! Learn more

10-Day Weather Forecast

Advertisements
Track Severe Weather on mobile